^^
Meteo Knjazevac Station Historical Data
Daily Summary for July 03, 2022 Units:  Metric    English   Both
Daily Weekly Monthly Yearly Custom
  High: Low: Average:
Temperature: 24.3 °C 16.6 °C 18.3 °C
Dew Point: 20.8 °C 16.4 °C 17.7 °C
Humidity: 99% 81% 96%
Wind Speed: 8km/h 0km/h 2.4km/h
Wind Gust: 11.3km/h - -
Wind- - West
Pressure: 1020.9 hPa 1020.5 hPa -
Precipitation: 0 mm    
Historical Graphs
 
 
Tabular Data for July 03, 2022
Time Temperature Dew Point Pressure Wind Wind Speed Wind Gust Humidity Rainfall Rate (Hourly) solar Conditions
00:10 19.1 °C 18.3 °C 1020.9 hPa WNW 3.2 km/h 4.8 km/h 95% 0 mm 0 W/m2
00:20 18.9 °C 18.1 °C 1020.9 hPa WNW 1.6 km/h 4.8 km/h 95% 0 mm 0 W/m2
00:40 18.8 °C 18 °C 1020.9 hPa West 1.6 km/h 3.2 km/h 95% 0 mm 0 W/m2
00:50 18.7 °C 17.9 °C 1020.9 hPa Calm   3.2 km/h 95% 0 mm 0 W/m2
01:00 18.7 °C 17.9 °C 1020.9 hPa West 1.6 km/h 3.2 km/h 95% 0 mm 0 W/m2
01:10 18.6 °C 17.8 °C 1020.9 hPa SW 1.6 km/h 3.2 km/h 95% 0 mm 0 W/m2
01:20 18.4 °C 17.8 °C 1020.9 hPa West 4.8 km/h 8 km/h 96% 0 mm 0 W/m2
01:40 18.2 °C 17.6 °C 1020.9 hPa Calm   4.8 km/h 96% 0 mm 0 W/m2
02:00 18 °C 17.3 °C 1020.9 hPa NW 1.6 km/h 3.2 km/h 96% 0 mm 0 W/m2
02:10 18 °C 17.3 °C 1020.9 hPa WSW 1.6 km/h 3.2 km/h 96% 0 mm 0 W/m2
02:20 17.9 °C 17.3 °C 1020.9 hPa WSW 1.6 km/h 3.2 km/h 96% 0 mm 0 W/m2
02:30 17.8 °C 17.2 °C 1020.9 hPa West 1.6 km/h 3.2 km/h 96% 0 mm 0 W/m2
02:40 17.7 °C 17.1 °C 1020.9 hPa SW 1.6 km/h 3.2 km/h 96% 0 mm 0 W/m2
02:50 17.6 °C 16.9 °C 1020.9 hPa West 1.6 km/h 3.2 km/h 96% 0 mm 0 W/m2
03:00 17.5 °C 17.2 °C 1020.5 hPa West 3.2 km/h 4.8 km/h 98% 0 mm 0 W/m2
03:10 17.5 °C 17.2 °C 1020.5 hPa WSW 3.2 km/h 6.4 km/h 98% 0 mm 0 W/m2
03:20 17.4 °C 17.1 °C 1020.5 hPa West 3.2 km/h 6.4 km/h 98% 0 mm 0 W/m2
03:30 17.3 °C 17 °C 1020.5 hPa West 3.2 km/h 6.4 km/h 98% 0 mm 0 W/m2
03:40 17.3 °C 17 °C 1020.5 hPa West 1.6 km/h 4.8 km/h 98% 0 mm 0 W/m2
03:50 17.2 °C 16.9 °C 1020.5 hPa West 1.6 km/h 4.8 km/h 98% 0 mm 0 W/m2
04:10 17.1 °C 16.9 °C 1020.5 hPa Calm   4.8 km/h 99% 0 mm 0 W/m2
04:20 17.1 °C 16.9 °C 1020.5 hPa WNW 1.6 km/h 3.2 km/h 99% 0 mm 0 W/m2
04:30 16.9 °C 16.6 °C 1020.5 hPa West 4.8 km/h 8 km/h 98% 0 mm 0 W/m2
04:50 16.7 °C 16.6 °C 1020.5 hPa West 8 km/h 11.3 km/h 99% 0 mm 0 W/m2
05:00 16.7 °C 16.6 °C 1020.5 hPa WSW 3.2 km/h 8 km/h 99% 0 mm 3 W/m2
05:20 16.7 °C 16.6 °C 1020.5 hPa NNW 1.6 km/h 3.2 km/h 99% 0 mm 13 W/m2
05:40 16.6 °C 16.4 °C 1020.9 hPa WNW 1.6 km/h 8 km/h 99% 0 mm 36 W/m2
05:50 16.6 °C 16.4 °C 1020.9 hPa West 4.8 km/h 8 km/h 99% 0 mm 47 W/m2
06:00 16.7 °C 16.6 °C 1020.9 hPa West 1.6 km/h 6.4 km/h 99% 0 mm 64 W/m2
06:10 16.8 °C 16.7 °C 1020.9 hPa West 3.2 km/h 8 km/h 99% 0 mm 70 W/m2
06:20 17 °C 16.8 °C 1020.9 hPa WSW 3.2 km/h 6.4 km/h 99% 0 mm 115 W/m2
06:30 17.1 °C 16.9 °C 1020.9 hPa WSW 3.2 km/h 4.8 km/h 99% 0 mm 140 W/m2
06:40 17.4 °C 17.2 °C 1020.9 hPa WNW 3.2 km/h 6.4 km/h 99% 0 mm 163 W/m2
06:50 17.6 °C 17.4 °C 1020.5 hPa West 3.2 km/h 4.8 km/h 99% 0 mm 190 W/m2
07:00 17.9 °C 17.7 °C 1020.9 hPa WNW 1.6 km/h 4.8 km/h 99% 0 mm 219 W/m2
07:10 18.1 °C 17.9 °C 1020.5 hPa NW 3.2 km/h 4.8 km/h 99% 0 mm 253 W/m2
07:20 18.5 °C 18.3 °C 1020.5 hPa NW 3.2 km/h 6.4 km/h 99% 0 mm 288 W/m2
07:30 19 °C 18.7 °C 1020.5 hPa NW 1.6 km/h 6.4 km/h 98% 0 mm 312 W/m2
07:40 19.4 °C 18.8 °C 1020.5 hPa West 3.2 km/h 6.4 km/h 96% 0 mm 333 W/m2
07:50 19.9 °C 19.1 °C 1020.9 hPa West 3.2 km/h 8 km/h 95% 0 mm 374 W/m2
08:00 20.3 °C 19.2 °C 1020.5 hPa West 3.2 km/h 6.4 km/h 93% 0 mm 420 W/m2
08:10 20.8 °C 19.3 °C 1020.5 hPa WNW 1.6 km/h 8 km/h 91% 0 mm 453 W/m2
08:20 21.4 °C 19.7 °C 1020.5 hPa WNW 3.2 km/h 6.4 km/h 90% 0 mm 474 W/m2
08:30 22.5 °C 20.4 °C 1020.5 hPa SW 1.6 km/h 4.8 km/h 88% 0 mm 506 W/m2
08:40 23.4 °C 20.6 °C 1020.5 hPa SW 3.2 km/h 4.8 km/h 84% 0 mm 544 W/m2
08:50 24.3 °C 20.8 °C 1020.5 hPa SSW 1.6 km/h 6.4 km/h 81% 0 mm 576 W/m2
Knjazevac, Serbia
Compliments of Weather Underground - 2 mb